sensor_id;sensor_type;location;lat;lon;timestamp;P1;durP1;ratioP1;P2;durP2;ratioP2
21505;SDS011;10914;48.886;9.394;2024-02-28T00:02:04;57.17;;;51.67;;
21505;SDS011;10914;48.886;9.394;2024-02-28T00:04:29;54.40;;;49.28;;
21505;SDS011;10914;48.886;9.394;2024-02-28T00:06:55;57.78;;;52.20;;
21505;SDS011;10914;48.886;9.394;2024-02-28T00:09:20;58.90;;;53.08;;
21505;SDS011;10914;48.886;9.394;2024-02-28T00:11:45;56.78;;;51.13;;
21505;SDS011;10914;48.886;9.394;2024-02-28T00:14:11;58.05;;;52.25;;
21505;SDS011;10914;48.886;9.394;2024-02-28T00:16:39;57.95;;;52.35;;
21505;SDS011;10914;48.886;9.394;2024-02-28T00:19:04;56.15;;;50.95;;
21505;SDS011;10914;48.886;9.394;2024-02-28T00:21:30;57.70;;;52.40;;
21505;SDS011;10914;48.886;9.394;2024-02-28T00:23:55;58.03;;;52.20;;
21505;SDS011;10914;48.886;9.394;2024-02-28T00:26:20;58.63;;;52.95;;
21505;SDS011;10914;48.886;9.394;2024-02-28T00:28:45;57.97;;;52.17;;
21505;SDS011;10914;48.886;9.394;2024-02-28T00:31:10;55.17;;;49.67;;
21505;SDS011;10914;48.886;9.394;2024-02-28T00:33:35;55.92;;;50.45;;
21505;SDS011;10914;48.886;9.394;2024-02-28T00:36:00;55.95;;;50.38;;
21505;SDS011;10914;48.886;9.394;2024-02-28T00:38:26;56.10;;;50.75;;
21505;SDS011;10914;48.886;9.394;2024-02-28T00:40:52;55.13;;;49.70;;
21505;SDS011;10914;48.886;9.394;2024-02-28T00:43:17;56.00;;;50.53;;
21505;SDS011;10914;48.886;9.394;2024-02-28T00:45:42;54.58;;;49.28;;
21505;SDS011;10914;48.886;9.394;2024-02-28T00:48:08;55.85;;;50.20;;
21505;SDS011;10914;48.886;9.394;2024-02-28T00:50:33;54.75;;;49.17;;
21505;SDS011;10914;48.886;9.394;2024-02-28T00:52:58;56.38;;;50.88;;
21505;SDS011;10914;48.886;9.394;2024-02-28T00:55:24;52.88;;;47.60;;
21505;SDS011;10914;48.886;9.394;2024-02-28T00:57:49;54.30;;;49.00;;
21505;SDS011;10914;48.886;9.394;2024-02-28T01:00:14;55.55;;;49.95;;
21505;SDS011;10914;48.886;9.394;2024-02-28T01:02:39;58.15;;;52.30;;
21505;SDS011;10914;48.886;9.394;2024-02-28T01:05:06;56.17;;;50.60;;
21505;SDS011;10914;48.886;9.394;2024-02-28T01:07:31;59.05;;;52.72;;
21505;SDS011;10914;48.886;9.394;2024-02-28T01:09:56;54.93;;;49.60;;
21505;SDS011;10914;48.886;9.394;2024-02-28T01:12:22;60.22;;;51.88;;
21505;SDS011;10914;48.886;9.394;2024-02-28T01:14:47;54.85;;;49.35;;
21505;SDS011;10914;48.886;9.394;2024-02-28T01:17:12;58.13;;;52.10;;
21505;SDS011;10914;48.886;9.394;2024-02-28T01:19:37;54.53;;;49.25;;
21505;SDS011;10914;48.886;9.394;2024-02-28T01:22:03;53.30;;;48.20;;
21505;SDS011;10914;48.886;9.394;2024-02-28T01:24:28;54.58;;;49.22;;
21505;SDS011;10914;48.886;9.394;2024-02-28T01:26:53;51.77;;;46.67;;
21505;SDS011;10914;48.886;9.394;2024-02-28T01:29:18;52.75;;;47.67;;
21505;SDS011;10914;48.886;9.394;2024-02-28T01:31:43;56.60;;;50.95;;
21505;SDS011;10914;48.886;9.394;2024-02-28T01:34:09;56.08;;;50.42;;
21505;SDS011;10914;48.886;9.394;2024-02-28T01:36:34;57.65;;;51.80;;
21505;SDS011;10914;48.886;9.394;2024-02-28T01:38:59;56.13;;;50.53;;
21505;SDS011;10914;48.886;9.394;2024-02-28T01:41:24;53.72;;;48.38;;
21505;SDS011;10914;48.886;9.394;2024-02-28T01:43:49;53.25;;;47.97;;
21505;SDS011;10914;48.886;9.394;2024-02-28T01:48:47;55.22;;;49.45;;
21505;SDS011;10914;48.886;9.394;2024-02-28T01:51:12;53.00;;;47.63;;
21505;SDS011;10914;48.886;9.394;2024-02-28T01:53:37;54.80;;;49.33;;
21505;SDS011;10914;48.886;9.394;2024-02-28T01:56:03;54.03;;;48.78;;
21505;SDS011;10914;48.886;9.394;2024-02-28T01:58:28;56.00;;;50.25;;
21505;SDS011;10914;48.886;9.394;2024-02-28T02:00:53;57.47;;;51.50;;
21505;SDS011;10914;48.886;9.394;2024-02-28T02:03:18;53.75;;;48.17;;
21505;SDS011;10914;48.886;9.394;2024-02-28T02:05:44;52.03;;;46.67;;
21505;SDS011;10914;48.886;9.394;2024-02-28T02:08:09;53.30;;;47.73;;
21505;SDS011;10914;48.886;9.394;2024-02-28T02:10:35;52.35;;;46.75;;
21505;SDS011;10914;48.886;9.394;2024-02-28T02:13:04;50.80;;;45.53;;
21505;SDS011;10914;48.886;9.394;2024-02-28T02:15:29;53.35;;;47.70;;
21505;SDS011;10914;48.886;9.394;2024-02-28T02:17:56;54.63;;;49.08;;
21505;SDS011;10914;48.886;9.394;2024-02-28T02:20:21;51.92;;;46.63;;
21505;SDS011;10914;48.886;9.394;2024-02-28T02:22:47;53.38;;;47.75;;
21505;SDS011;10914;48.886;9.394;2024-02-28T02:25:12;54.40;;;48.90;;
21505;SDS011;10914;48.886;9.394;2024-02-28T02:27:37;55.67;;;49.97;;
21505;SDS011;10914;48.886;9.394;2024-02-28T02:30:02;55.40;;;49.83;;
21505;SDS011;10914;48.886;9.394;2024-02-28T02:32:28;57.50;;;51.58;;
21505;SDS011;10914;48.886;9.394;2024-02-28T02:34:53;56.50;;;50.60;;
21505;SDS011;10914;48.886;9.394;2024-02-28T02:37:18;56.17;;;50.27;;
21505;SDS011;10914;48.886;9.394;2024-02-28T02:39:44;56.28;;;50.20;;
21505;SDS011;10914;48.886;9.394;2024-02-28T02:42:09;56.38;;;50.70;;
21505;SDS011;10914;48.886;9.394;2024-02-28T02:44:34;54.83;;;49.20;;
21505;SDS011;10914;48.886;9.394;2024-02-28T02:46:59;54.85;;;49.28;;
21505;SDS011;10914;48.886;9.394;2024-02-28T02:49:24;54.27;;;48.93;;
21505;SDS011;10914;48.886;9.394;2024-02-28T02:51:50;56.17;;;50.35;;
21505;SDS011;10914;48.886;9.394;2024-02-28T02:54:15;54.42;;;48.85;;
21505;SDS011;10914;48.886;9.394;2024-02-28T02:56:43;54.97;;;49.37;;
21505;SDS011;10914;48.886;9.394;2024-02-28T02:59:09;56.97;;;51.10;;
21505;SDS011;10914;48.886;9.394;2024-02-28T03:01:34;56.10;;;50.42;;
21505;SDS011;10914;48.886;9.394;2024-02-28T03:03:59;55.50;;;49.70;;
21505;SDS011;10914;48.886;9.394;2024-02-28T03:06:25;54.33;;;48.80;;
21505;SDS011;10914;48.886;9.394;2024-02-28T03:08:50;57.35;;;51.40;;
21505;SDS011;10914;48.886;9.394;2024-02-28T03:11:15;56.47;;;50.70;;
21505;SDS011;10914;48.886;9.394;2024-02-28T03:13:40;56.42;;;50.53;;
21505;SDS011;10914;48.886;9.394;2024-02-28T03:16:05;57.03;;;51.10;;
21505;SDS011;10914;48.886;9.394;2024-02-28T03:18:31;53.67;;;48.33;;
21505;SDS011;10914;48.886;9.394;2024-02-28T03:20:56;52.50;;;47.10;;
21505;SDS011;10914;48.886;9.394;2024-02-28T03:23:21;55.90;;;49.83;;
21505;SDS011;10914;48.886;9.394;2024-02-28T03:25:46;57.05;;;50.97;;
21505;SDS011;10914;48.886;9.394;2024-02-28T03:28:11;56.55;;;50.60;;
21505;SDS011;10914;48.886;9.394;2024-02-28T03:30:36;57.60;;;51.30;;
21505;SDS011;10914;48.886;9.394;2024-02-28T03:33:02;53.88;;;48.22;;
21505;SDS011;10914;48.886;9.394;2024-02-28T03:35:27;56.08;;;50.05;;
21505;SDS011;10914;48.886;9.394;2024-02-28T03:37:52;54.45;;;48.75;;
21505;SDS011;10914;48.886;9.394;2024-02-28T03:40:17;54.37;;;48.80;;
21505;SDS011;10914;48.886;9.394;2024-02-28T03:42:42;54.83;;;49.08;;
21505;SDS011;10914;48.886;9.394;2024-02-28T03:45:08;56.33;;;50.57;;
21505;SDS011;10914;48.886;9.394;2024-02-28T03:47:33;54.83;;;49.13;;
21505;SDS011;10914;48.886;9.394;2024-02-28T03:49:58;53.83;;;48.15;;
21505;SDS011;10914;48.886;9.394;2024-02-28T03:52:24;54.60;;;48.75;;
21505;SDS011;10914;48.886;9.394;2024-02-28T03:54:49;54.83;;;48.88;;
21505;SDS011;10914;48.886;9.394;2024-02-28T03:57:14;54.60;;;48.95;;
21505;SDS011;10914;48.886;9.394;2024-02-28T03:59:42;53.30;;;47.90;;
21505;SDS011;10914;48.886;9.394;2024-02-28T04:02:07;55.10;;;48.92;;
21505;SDS011;10914;48.886;9.394;2024-02-28T04:04:33;52.57;;;47.27;;
21505;SDS011;10914;48.886;9.394;2024-02-28T04:06:58;51.72;;;46.42;;
21505;SDS011;10914;48.886;9.394;2024-02-28T04:09:24;51.15;;;45.83;;
21505;SDS011;10914;48.886;9.394;2024-02-28T04:11:49;51.80;;;46.27;;
21505;SDS011;10914;48.886;9.394;2024-02-28T04:14:14;54.40;;;48.15;;
21505;SDS011;10914;48.886;9.394;2024-02-28T04:16:42;54.73;;;48.73;;
21505;SDS011;10914;48.886;9.394;2024-02-28T04:19:11;54.55;;;47.97;;
21505;SDS011;10914;48.886;9.394;2024-02-28T04:21:36;54.00;;;48.28;;
21505;SDS011;10914;48.886;9.394;2024-02-28T04:24:01;53.00;;;46.90;;
21505;SDS011;10914;48.886;9.394;2024-02-28T04:26:26;55.80;;;49.57;;
21505;SDS011;10914;48.886;9.394;2024-02-28T04:28:51;58.40;;;49.97;;
21505;SDS011;10914;48.886;9.394;2024-02-28T04:31:17;55.50;;;46.90;;
21505;SDS011;10914;48.886;9.394;2024-02-28T04:33:42;59.60;;;49.22;;
21505;SDS011;10914;48.886;9.394;2024-02-28T04:36:07;53.60;;;46.65;;
21505;SDS011;10914;48.886;9.394;2024-02-28T04:38:32;53.47;;;47.65;;
21505;SDS011;10914;48.886;9.394;2024-02-28T04:40:57;56.58;;;48.08;;
21505;SDS011;10914;48.886;9.394;2024-02-28T04:43:22;54.63;;;48.37;;
21505;SDS011;10914;48.886;9.394;2024-02-28T04:45:48;59.00;;;50.28;;
21505;SDS011;10914;48.886;9.394;2024-02-28T04:48:13;56.17;;;48.53;;
21505;SDS011;10914;48.886;9.394;2024-02-28T04:50:38;55.22;;;47.88;;
21505;SDS011;10914;48.886;9.394;2024-02-28T04:53:04;56.03;;;49.92;;
21505;SDS011;10914;48.886;9.394;2024-02-28T04:55:29;55.08;;;48.83;;
21505;SDS011;10914;48.886;9.394;2024-02-28T04:57:54;58.55;;;49.47;;
21505;SDS011;10914;48.886;9.394;2024-02-28T05:00:19;55.90;;;49.80;;
21505;SDS011;10914;48.886;9.394;2024-02-28T05:02:44;55.50;;;49.40;;
21505;SDS011;10914;48.886;9.394;2024-02-28T05:05:09;53.90;;;48.27;;
21505;SDS011;10914;48.886;9.394;2024-02-28T05:07:35;54.35;;;48.33;;
21505;SDS011;10914;48.886;9.394;2024-02-28T05:10:00;57.35;;;50.03;;
21505;SDS011;10914;48.886;9.394;2024-02-28T05:12:25;54.70;;;48.15;;
21505;SDS011;10914;48.886;9.394;2024-02-28T05:14:50;53.75;;;47.45;;
21505;SDS011;10914;48.886;9.394;2024-02-28T05:17:15;54.75;;;48.75;;
21505;SDS011;10914;48.886;9.394;2024-02-28T05:19:42;52.78;;;47.00;;
21505;SDS011;10914;48.886;9.394;2024-02-28T05:22:07;56.97;;;48.30;;
21505;SDS011;10914;48.886;9.394;2024-02-28T05:24:32;54.20;;;47.38;;
21505;SDS011;10914;48.886;9.394;2024-02-28T05:26:57;51.37;;;45.93;;
21505;SDS011;10914;48.886;9.394;2024-02-28T05:29:23;53.00;;;47.25;;
21505;SDS011;10914;48.886;9.394;2024-02-28T05:31:48;55.53;;;46.28;;
21505;SDS011;10914;48.886;9.394;2024-02-28T05:34:13;54.60;;;47.37;;
21505;SDS011;10914;48.886;9.394;2024-02-28T05:36:40;56.45;;;50.28;;
21505;SDS011;10914;48.886;9.394;2024-02-28T05:39:05;54.67;;;47.70;;
21505;SDS011;10914;48.886;9.394;2024-02-28T05:41:30;59.00;;;50.28;;
21505;SDS011;10914;48.886;9.394;2024-02-28T05:43:56;56.90;;;49.92;;
21505;SDS011;10914;48.886;9.394;2024-02-28T05:46:21;57.97;;;50.22;;
21505;SDS011;10914;48.886;9.394;2024-02-28T05:48:47;55.47;;;48.60;;
21505;SDS011;10914;48.886;9.394;2024-02-28T05:51:12;53.28;;;46.72;;
21505;SDS011;10914;48.886;9.394;2024-02-28T05:53:38;55.75;;;47.30;;
21505;SDS011;10914;48.886;9.394;2024-02-28T05:56:06;50.83;;;45.33;;
21505;SDS011;10914;48.886;9.394;2024-02-28T05:58:42;48.85;;;43.63;;
21505;SDS011;10914;48.886;9.394;2024-02-28T06:01:08;48.55;;;43.50;;
21505;SDS011;10914;48.886;9.394;2024-02-28T06:03:33;49.97;;;44.72;;
21505;SDS011;10914;48.886;9.394;2024-02-28T06:05:59;50.95;;;45.60;;
21505;SDS011;10914;48.886;9.394;2024-02-28T06:08:24;48.05;;;42.63;;
21505;SDS011;10914;48.886;9.394;2024-02-28T06:10:49;47.65;;;42.75;;
21505;SDS011;10914;48.886;9.394;2024-02-28T06:13:14;47.40;;;42.65;;
21505;SDS011;10914;48.886;9.394;2024-02-28T06:15:40;49.08;;;43.85;;
21505;SDS011;10914;48.886;9.394;2024-02-28T06:18:05;45.45;;;41.05;;
21505;SDS011;10914;48.886;9.394;2024-02-28T06:20:30;47.13;;;42.58;;
21505;SDS011;10914;48.886;9.394;2024-02-28T06:22:55;48.23;;;43.27;;
21505;SDS011;10914;48.886;9.394;2024-02-28T06:25:20;50.80;;;45.40;;
21505;SDS011;10914;48.886;9.394;2024-02-28T06:27:47;46.80;;;42.20;;
21505;SDS011;10914;48.886;9.394;2024-02-28T06:30:13;46.88;;;42.05;;
21505;SDS011;10914;48.886;9.394;2024-02-28T06:32:38;46.03;;;41.63;;
21505;SDS011;10914;48.886;9.394;2024-02-28T06:35:04;51.55;;;45.22;;
21505;SDS011;10914;48.886;9.394;2024-02-28T06:37:29;48.63;;;43.60;;
21505;SDS011;10914;48.886;9.394;2024-02-28T06:39:54;50.30;;;44.90;;
21505;SDS011;10914;48.886;9.394;2024-02-28T06:42:19;47.67;;;43.00;;
21505;SDS011;10914;48.886;9.394;2024-02-28T06:44:44;48.70;;;43.78;;
21505;SDS011;10914;48.886;9.394;2024-02-28T06:47:09;48.83;;;43.97;;
21505;SDS011;10914;48.886;9.394;2024-02-28T06:49:35;47.70;;;42.67;;
21505;SDS011;10914;48.886;9.394;2024-02-28T06:52:00;48.40;;;43.40;;
21505;SDS011;10914;48.886;9.394;2024-02-28T06:54:26;46.90;;;42.38;;
21505;SDS011;10914;48.886;9.394;2024-02-28T06:56:51;48.42;;;43.50;;
21505;SDS011;10914;48.886;9.394;2024-02-28T06:59:16;47.20;;;42.42;;
21505;SDS011;10914;48.886;9.394;2024-02-28T07:01:42;46.10;;;41.53;;
21505;SDS011;10914;48.886;9.394;2024-02-28T07:04:07;48.53;;;43.65;;
21505;SDS011;10914;48.886;9.394;2024-02-28T07:06:32;45.60;;;41.00;;
21505;SDS011;10914;48.886;9.394;2024-02-28T07:08:57;47.92;;;43.05;;
21505;SDS011;10914;48.886;9.394;2024-02-28T07:11:22;47.70;;;42.70;;
21505;SDS011;10914;48.886;9.394;2024-02-28T07:13:47;49.67;;;43.47;;
21505;SDS011;10914;48.886;9.394;2024-02-28T07:16:13;46.78;;;42.03;;
21505;SDS011;10914;48.886;9.394;2024-02-28T07:18:38;48.78;;;43.67;;
21505;SDS011;10914;48.886;9.394;2024-02-28T07:21:03;47.93;;;43.03;;
21505;SDS011;10914;48.886;9.394;2024-02-28T07:23:28;48.95;;;44.10;;
21505;SDS011;10914;48.886;9.394;2024-02-28T07:25:53;50.27;;;45.00;;
21505;SDS011;10914;48.886;9.394;2024-02-28T07:28:18;52.40;;;45.15;;
21505;SDS011;10914;48.886;9.394;2024-02-28T07:30:43;48.08;;;43.08;;
21505;SDS011;10914;48.886;9.394;2024-02-28T07:33:10;48.92;;;43.70;;
21505;SDS011;10914;48.886;9.394;2024-02-28T07:35:49;47.17;;;42.15;;
21505;SDS011;10914;48.886;9.394;2024-02-28T07:38:15;48.30;;;43.28;;
21505;SDS011;10914;48.886;9.394;2024-02-28T07:40:42;49.90;;;44.78;;
21505;SDS011;10914;48.886;9.394;2024-02-28T07:43:07;47.77;;;42.77;;
21505;SDS011;10914;48.886;9.394;2024-02-28T07:45:32;47.60;;;42.65;;
21505;SDS011;10914;48.886;9.394;2024-02-28T07:47:57;47.22;;;42.40;;
21505;SDS011;10914;48.886;9.394;2024-02-28T07:50:23;47.57;;;42.83;;
21505;SDS011;10914;48.886;9.394;2024-02-28T07:52:48;46.95;;;41.97;;
21505;SDS011;10914;48.886;9.394;2024-02-28T07:55:13;47.77;;;42.90;;
21505;SDS011;10914;48.886;9.394;2024-02-28T07:57:38;48.93;;;43.93;;
21505;SDS011;10914;48.886;9.394;2024-02-28T08:00:04;46.05;;;41.35;;
21505;SDS011;10914;48.886;9.394;2024-02-28T08:02:29;47.65;;;42.75;;
21505;SDS011;10914;48.886;9.394;2024-02-28T08:04:54;46.65;;;42.20;;
21505;SDS011;10914;48.886;9.394;2024-02-28T08:07:19;47.90;;;42.83;;
21505;SDS011;10914;48.886;9.394;2024-02-28T08:09:45;47.27;;;42.20;;
21505;SDS011;10914;48.886;9.394;2024-02-28T08:12:10;49.70;;;43.90;;
21505;SDS011;10914;48.886;9.394;2024-02-28T08:14:35;46.85;;;42.08;;
21505;SDS011;10914;48.886;9.394;2024-02-28T08:17:00;47.83;;;42.90;;
21505;SDS011;10914;48.886;9.394;2024-02-28T08:19:25;46.95;;;42.33;;
21505;SDS011;10914;48.886;9.394;2024-02-28T08:21:51;47.75;;;43.05;;
21505;SDS011;10914;48.886;9.394;2024-02-28T08:24:16;47.13;;;42.47;;
21505;SDS011;10914;48.886;9.394;2024-02-28T08:26:41;47.33;;;42.67;;
21505;SDS011;10914;48.886;9.394;2024-02-28T08:29:07;46.22;;;41.83;;
21505;SDS011;10914;48.886;9.394;2024-02-28T08:31:32;48.40;;;43.75;;
21505;SDS011;10914;48.886;9.394;2024-02-28T08:33:57;49.15;;;44.40;;
21505;SDS011;10914;48.886;9.394;2024-02-28T08:36:22;46.53;;;42.05;;
21505;SDS011;10914;48.886;9.394;2024-02-28T08:38:47;50.87;;;45.50;;
21505;SDS011;10914;48.886;9.394;2024-02-28T08:41:13;46.42;;;41.75;;
21505;SDS011;10914;48.886;9.394;2024-02-28T08:43:38;49.28;;;44.20;;
21505;SDS011;10914;48.886;9.394;2024-02-28T08:46:04;50.05;;;44.70;;
21505;SDS011;10914;48.886;9.394;2024-02-28T08:48:29;51.58;;;46.25;;
21505;SDS011;10914;48.886;9.394;2024-02-28T08:50:54;49.15;;;44.33;;
21505;SDS011;10914;48.886;9.394;2024-02-28T08:53:19;49.63;;;44.55;;
21505;SDS011;10914;48.886;9.394;2024-02-28T08:55:45;48.75;;;43.83;;
21505;SDS011;10914;48.886;9.394;2024-02-28T08:58:10;48.00;;;43.15;;
21505;SDS011;10914;48.886;9.394;2024-02-28T09:00:35;51.35;;;46.10;;
21505;SDS011;10914;48.886;9.394;2024-02-28T09:03:00;46.92;;;42.22;;
21505;SDS011;10914;48.886;9.394;2024-02-28T09:05:26;49.88;;;44.72;;
21505;SDS011;10914;48.886;9.394;2024-02-28T09:07:52;50.75;;;45.63;;
21505;SDS011;10914;48.886;9.394;2024-02-28T09:10:19;54.20;;;48.70;;
21505;SDS011;10914;48.886;9.394;2024-02-28T09:12:49;52.95;;;47.78;;
21505;SDS011;10914;48.886;9.394;2024-02-28T09:15:14;55.30;;;49.63;;
21505;SDS011;10914;48.886;9.394;2024-02-28T09:17:40;52.47;;;47.08;;
21505;SDS011;10914;48.886;9.394;2024-02-28T09:20:05;54.60;;;48.97;;
21505;SDS011;10914;48.886;9.394;2024-02-28T09:22:31;53.08;;;47.63;;
21505;SDS011;10914;48.886;9.394;2024-02-28T09:24:56;56.25;;;50.65;;
21505;SDS011;10914;48.886;9.394;2024-02-28T09:27:21;53.13;;;47.97;;
21505;SDS011;10914;48.886;9.394;2024-02-28T09:29:47;55.78;;;50.03;;
21505;SDS011;10914;48.886;9.394;2024-02-28T09:32:12;56.03;;;50.22;;
21505;SDS011;10914;48.886;9.394;2024-02-28T09:34:37;54.10;;;48.40;;
21505;SDS011;10914;48.886;9.394;2024-02-28T09:37:02;54.67;;;48.95;;
21505;SDS011;10914;48.886;9.394;2024-02-28T09:39:29;57.88;;;51.95;;
21505;SDS011;10914;48.886;9.394;2024-02-28T09:41:54;55.90;;;50.00;;
21505;SDS011;10914;48.886;9.394;2024-02-28T09:44:19;53.00;;;47.30;;
21505;SDS011;10914;48.886;9.394;2024-02-28T09:46:45;56.60;;;50.47;;
21505;SDS011;10914;48.886;9.394;2024-02-28T09:49:11;55.80;;;49.75;;
21505;SDS011;10914;48.886;9.394;2024-02-28T09:51:36;57.00;;;51.13;;
21505;SDS011;10914;48.886;9.394;2024-02-28T09:54:04;53.38;;;47.80;;
21505;SDS011;10914;48.886;9.394;2024-02-28T09:56:30;57.13;;;51.35;;
21505;SDS011;10914;48.886;9.394;2024-02-28T09:58:56;57.05;;;51.25;;
21505;SDS011;10914;48.886;9.394;2024-02-28T10:01:21;56.95;;;51.22;;
21505;SDS011;10914;48.886;9.394;2024-02-28T10:03:47;58.15;;;52.10;;
21505;SDS011;10914;48.886;9.394;2024-02-28T10:06:12;58.03;;;52.03;;
21505;SDS011;10914;48.886;9.394;2024-02-28T10:08:38;55.47;;;49.70;;
21505;SDS011;10914;48.886;9.394;2024-02-28T10:11:03;55.90;;;49.43;;
21505;SDS011;10914;48.886;9.394;2024-02-28T10:13:29;53.25;;;47.75;;
21505;SDS011;10914;48.886;9.394;2024-02-28T10:15:54;54.15;;;48.20;;
21505;SDS011;10914;48.886;9.394;2024-02-28T10:18:19;54.65;;;48.78;;
21505;SDS011;10914;48.886;9.394;2024-02-28T10:20:45;55.22;;;49.00;;
21505;SDS011;10914;48.886;9.394;2024-02-28T10:23:10;55.35;;;49.42;;
21505;SDS011;10914;48.886;9.394;2024-02-28T10:25:42;54.38;;;48.65;;
21505;SDS011;10914;48.886;9.394;2024-02-28T10:28:07;54.10;;;48.63;;
21505;SDS011;10914;48.886;9.394;2024-02-28T10:30:32;54.17;;;48.50;;
21505;SDS011;10914;48.886;9.394;2024-02-28T10:32:57;54.77;;;49.03;;
21505;SDS011;10914;48.886;9.394;2024-02-28T10:35:22;54.47;;;48.67;;
21505;SDS011;10914;48.886;9.394;2024-02-28T10:37:50;55.80;;;50.10;;
21505;SDS011;10914;48.886;9.394;2024-02-28T10:40:16;52.70;;;47.08;;
21505;SDS011;10914;48.886;9.394;2024-02-28T10:42:42;52.17;;;46.80;;
21505;SDS011;10914;48.886;9.394;2024-02-28T10:45:07;52.83;;;47.38;;
21505;SDS011;10914;48.886;9.394;2024-02-28T10:47:35;53.55;;;48.17;;
21505;SDS011;10914;48.886;9.394;2024-02-28T10:50:01;56.42;;;50.30;;
21505;SDS011;10914;48.886;9.394;2024-02-28T10:52:26;52.80;;;47.37;;
21505;SDS011;10914;48.886;9.394;2024-02-28T10:54:54;51.65;;;46.25;;
21505;SDS011;10914;48.886;9.394;2024-02-28T10:57:21;50.40;;;45.40;;
21505;SDS011;10914;48.886;9.394;2024-02-28T10:59:46;51.85;;;46.35;;
21505;SDS011;10914;48.886;9.394;2024-02-28T11:02:12;52.40;;;47.10;;
21505;SDS011;10914;48.886;9.394;2024-02-28T11:04:37;53.83;;;48.58;;
21505;SDS011;10914;48.886;9.394;2024-02-28T11:07:03;53.97;;;48.28;;
21505;SDS011;10914;48.886;9.394;2024-02-28T11:09:28;50.73;;;45.83;;
21505;SDS011;10914;48.886;9.394;2024-02-28T11:11:55;50.35;;;45.25;;
21505;SDS011;10914;48.886;9.394;2024-02-28T11:14:21;49.95;;;44.95;;
21505;SDS011;10914;48.886;9.394;2024-02-28T11:16:59;51.30;;;46.20;;
21505;SDS011;10914;48.886;9.394;2024-02-28T11:19:25;50.58;;;45.20;;
21505;SDS011;10914;48.886;9.394;2024-02-28T11:21:55;53.30;;;47.78;;
21505;SDS011;10914;48.886;9.394;2024-02-28T11:24:24;50.97;;;46.00;;
21505;SDS011;10914;48.886;9.394;2024-02-28T11:26:50;53.88;;;48.35;;
21505;SDS011;10914;48.886;9.394;2024-02-28T11:29:16;52.00;;;46.75;;
21505;SDS011;10914;48.886;9.394;2024-02-28T11:31:41;52.38;;;47.15;;
21505;SDS011;10914;48.886;9.394;2024-02-28T11:34:06;54.55;;;49.28;;
21505;SDS011;10914;48.886;9.394;2024-02-28T11:36:32;52.40;;;47.55;;
21505;SDS011;10914;48.886;9.394;2024-02-28T11:38:57;51.85;;;46.90;;
21505;SDS011;10914;48.886;9.394;2024-02-28T11:41:26;52.10;;;47.00;;
21505;SDS011;10914;48.886;9.394;2024-02-28T11:43:52;50.95;;;46.08;;
21505;SDS011;10914;48.886;9.394;2024-02-28T11:46:18;48.38;;;43.60;;
21505;SDS011;10914;48.886;9.394;2024-02-28T11:48:43;46.00;;;41.65;;
21505;SDS011;10914;48.886;9.394;2024-02-28T11:51:08;46.20;;;41.40;;
21505;SDS011;10914;48.886;9.394;2024-02-28T11:53:33;44.08;;;39.67;;
21505;SDS011;10914;48.886;9.394;2024-02-28T11:55:58;44.00;;;39.57;;
21505;SDS011;10914;48.886;9.394;2024-02-28T11:58:24;44.20;;;39.63;;
21505;SDS011;10914;48.886;9.394;2024-02-28T12:00:50;42.70;;;38.30;;
21505;SDS011;10914;48.886;9.394;2024-02-28T12:03:22;43.05;;;38.63;;
21505;SDS011;10914;48.886;9.394;2024-02-28T12:05:47;43.50;;;38.97;;
21505;SDS011;10914;48.886;9.394;2024-02-28T12:08:12;42.10;;;37.90;;
21505;SDS011;10914;48.886;9.394;2024-02-28T12:10:37;44.23;;;39.83;;
21505;SDS011;10914;48.886;9.394;2024-02-28T12:13:03;40.42;;;36.53;;
21505;SDS011;10914;48.886;9.394;2024-02-28T12:15:29;43.65;;;39.05;;
21505;SDS011;10914;48.886;9.394;2024-02-28T12:17:54;42.03;;;37.67;;
21505;SDS011;10914;48.886;9.394;2024-02-28T12:20:19;41.83;;;37.70;;
21505;SDS011;10914;48.886;9.394;2024-02-28T12:22:45;41.22;;;37.08;;
21505;SDS011;10914;48.886;9.394;2024-02-28T12:25:10;42.78;;;38.38;;
21505;SDS011;10914;48.886;9.394;2024-02-28T12:27:35;43.47;;;38.80;;
21505;SDS011;10914;48.886;9.394;2024-02-28T12:30:00;42.42;;;38.40;;
21505;SDS011;10914;48.886;9.394;2024-02-28T12:32:26;44.00;;;39.58;;
21505;SDS011;10914;48.886;9.394;2024-02-28T12:34:51;42.47;;;38.28;;
21505;SDS011;10914;48.886;9.394;2024-02-28T12:37:16;42.15;;;38.03;;
21505;SDS011;10914;48.886;9.394;2024-02-28T12:39:41;42.97;;;38.63;;
21505;SDS011;10914;48.886;9.394;2024-02-28T12:42:07;42.90;;;38.70;;
21505;SDS011;10914;48.886;9.394;2024-02-28T12:44:32;41.45;;;37.33;;
21505;SDS011;10914;48.886;9.394;2024-02-28T12:46:57;39.80;;;35.80;;
21505;SDS011;10914;48.886;9.394;2024-02-28T12:49:22;41.60;;;37.55;;
21505;SDS011;10914;48.886;9.394;2024-02-28T12:51:48;43.50;;;39.20;;
21505;SDS011;10914;48.886;9.394;2024-02-28T12:54:14;41.78;;;37.55;;
21505;SDS011;10914;48.886;9.394;2024-02-28T12:56:39;40.00;;;35.95;;
21505;SDS011;10914;48.886;9.394;2024-02-28T12:59:05;40.03;;;36.40;;
21505;SDS011;10914;48.886;9.394;2024-02-28T13:01:32;40.17;;;36.40;;
21505;SDS011;10914;48.886;9.394;2024-02-28T13:03:57;42.00;;;37.97;;
21505;SDS011;10914;48.886;9.394;2024-02-28T13:06:22;41.47;;;37.42;;
21505;SDS011;10914;48.886;9.394;2024-02-28T13:08:48;44.00;;;39.60;;
21505;SDS011;10914;48.886;9.394;2024-02-28T13:11:17;41.38;;;37.50;;
21505;SDS011;10914;48.886;9.394;2024-02-28T13:13:42;40.60;;;36.70;;
21505;SDS011;10914;48.886;9.394;2024-02-28T13:16:07;41.67;;;37.60;;
21505;SDS011;10914;48.886;9.394;2024-02-28T13:18:32;41.03;;;36.95;;
21505;SDS011;10914;48.886;9.394;2024-02-28T13:20:57;40.13;;;36.15;;
21505;SDS011;10914;48.886;9.394;2024-02-28T13:23:23;41.80;;;37.53;;
21505;SDS011;10914;48.886;9.394;2024-02-28T13:25:48;39.33;;;35.58;;
21505;SDS011;10914;48.886;9.394;2024-02-28T13:28:14;40.60;;;36.78;;
21505;SDS011;10914;48.886;9.394;2024-02-28T13:30:40;42.72;;;38.50;;
21505;SDS011;10914;48.886;9.394;2024-02-28T13:33:05;40.80;;;36.88;;
21505;SDS011;10914;48.886;9.394;2024-02-28T13:35:31;42.50;;;38.10;;
21505;SDS011;10914;48.886;9.394;2024-02-28T13:37:56;40.63;;;36.88;;
21505;SDS011;10914;48.886;9.394;2024-02-28T13:40:28;40.58;;;36.70;;
21505;SDS011;10914;48.886;9.394;2024-02-28T13:42:53;40.78;;;37.03;;
21505;SDS011;10914;48.886;9.394;2024-02-28T13:45:18;40.80;;;36.92;;
21505;SDS011;10914;48.886;9.394;2024-02-28T13:47:44;40.65;;;36.88;;
21505;SDS011;10914;48.886;9.394;2024-02-28T13:50:09;40.30;;;36.53;;
21505;SDS011;10914;48.886;9.394;2024-02-28T13:52:35;41.05;;;37.30;;
21505;SDS011;10914;48.886;9.394;2024-02-28T13:55:00;39.47;;;35.73;;
21505;SDS011;10914;48.886;9.394;2024-02-28T13:57:25;41.58;;;37.60;;
21505;SDS011;10914;48.886;9.394;2024-02-28T13:59:51;38.80;;;35.30;;
21505;SDS011;10914;48.886;9.394;2024-02-28T14:02:19;38.90;;;35.28;;
21505;SDS011;10914;48.886;9.394;2024-02-28T14:04:44;39.58;;;35.95;;
21505;SDS011;10914;48.886;9.394;2024-02-28T14:07:13;40.65;;;37.03;;
21505;SDS011;10914;48.886;9.394;2024-02-28T14:09:39;36.53;;;33.42;;
21505;SDS011;10914;48.886;9.394;2024-02-28T14:12:04;35.28;;;32.20;;
21505;SDS011;10914;48.886;9.394;2024-02-28T14:14:29;37.45;;;34.15;;